sensor_id;sensor_type;location;lat;lon;timestamp;pressure;altitude;pressure_sealevel;temperature;humidity
78679;BME280;67994;59.334;13.528;2023-05-20T00:00:00;102600.0;;;9.2;68.4
78679;BME280;67994;59.334;13.528;2023-05-20T00:01:00;102600.0;;;9.2;68.4
78679;BME280;67994;59.334;13.528;2023-05-20T00:02:00;102600.0;;;8.9;69.7
78679;BME280;67994;59.334;13.528;2023-05-20T00:03:00;102600.0;;;8.8;70.2
78679;BME280;67994;59.334;13.528;2023-05-20T00:04:00;102600.0;;;8.8;70.1
78679;BME280;67994;59.334;13.528;2023-05-20T00:05:00;102600.0;;;8.8;70.3
78679;BME280;67994;59.334;13.528;2023-05-20T00:06:00;102600.0;;;8.7;70.6
78679;BME280;67994;59.334;13.528;2023-05-20T00:07:00;102600.0;;;8.7;70.5
78679;BME280;67994;59.334;13.528;2023-05-20T00:08:00;102600.0;;;8.8;70.1
78679;BME280;67994;59.334;13.528;2023-05-20T00:09:00;102600.0;;;8.7;70.6
78679;BME280;67994;59.334;13.528;2023-05-20T00:10:00;102600.0;;;8.7;70.2
78679;BME280;67994;59.334;13.528;2023-05-20T00:11:00;102600.0;;;8.7;69.9
78679;BME280;67994;59.334;13.528;2023-05-20T00:12:00;102600.0;;;8.8;69.7
78679;BME280;67994;59.334;13.528;2023-05-20T00:13:00;102600.0;;;8.9;69.3
78679;BME280;67994;59.334;13.528;2023-05-20T00:14:00;102600.0;;;8.9;69.0
78679;BME280;67994;59.334;13.528;2023-05-20T00:15:00;102600.0;;;8.9;69.0
78679;BME280;67994;59.334;13.528;2023-05-20T00:16:00;102600.0;;;8.9;69.0
78679;BME280;67994;59.334;13.528;2023-05-20T00:17:00;102600.0;;;9.0;68.5
78679;BME280;67994;59.334;13.528;2023-05-20T00:18:01;102600.0;;;9.0;69.0
78679;BME280;67994;59.334;13.528;2023-05-20T00:19:00;102600.0;;;8.8;69.0
78679;BME280;67994;59.334;13.528;2023-05-20T00:20:00;102600.0;;;8.7;70.2
78679;BME280;67994;59.334;13.528;2023-05-20T00:21:00;102600.0;;;8.6;71.5
78679;BME280;67994;59.334;13.528;2023-05-20T00:22:00;102600.0;;;8.4;71.4
78679;BME280;67994;59.334;13.528;2023-05-20T00:23:00;102600.0;;;8.5;71.4
78679;BME280;67994;59.334;13.528;2023-05-20T00:24:00;102600.0;;;8.6;71.1
78679;BME280;67994;59.334;13.528;2023-05-20T00:25:00;102600.0;;;8.7;70.4
78679;BME280;67994;59.334;13.528;2023-05-20T00:26:00;102600.0;;;8.7;70.4
78679;BME280;67994;59.334;13.528;2023-05-20T00:27:00;102600.0;;;8.5;71.3
78679;BME280;67994;59.334;13.528;2023-05-20T00:28:00;102600.0;;;8.5;71.3
78679;BME280;67994;59.334;13.528;2023-05-20T00:29:00;102600.0;;;8.4;71.3
78679;BME280;67994;59.334;13.528;2023-05-20T00:30:00;102600.0;;;8.5;71.4
78679;BME280;67994;59.334;13.528;2023-05-20T00:31:00;102600.0;;;8.5;71.1
78679;BME280;67994;59.334;13.528;2023-05-20T00:32:00;102600.0;;;8.4;71.5
78679;BME280;67994;59.334;13.528;2023-05-20T00:33:00;102600.0;;;8.3;71.8
78679;BME280;67994;59.334;13.528;2023-05-20T00:34:00;102600.0;;;8.2;72.7
78679;BME280;67994;59.334;13.528;2023-05-20T00:35:01;102600.0;;;8.3;72.4
78679;BME280;67994;59.334;13.528;2023-05-20T00:36:01;102600.0;;;8.0;72.4
78679;BME280;67994;59.334;13.528;2023-05-20T00:37:00;102600.0;;;8.0;74.1
78679;BME280;67994;59.334;13.528;2023-05-20T00:38:00;102600.0;;;8.0;74.2
78679;BME280;67994;59.334;13.528;2023-05-20T00:39:00;102600.0;;;8.0;74.0
78679;BME280;67994;59.334;13.528;2023-05-20T00:40:00;102600.0;;;8.1;74.5
78679;BME280;67994;59.334;13.528;2023-05-20T00:41:00;102600.0;;;8.2;73.6
78679;BME280;67994;59.334;13.528;2023-05-20T00:42:00;102600.0;;;8.2;73.5
78679;BME280;67994;59.334;13.528;2023-05-20T00:43:00;102600.0;;;8.2;73.0
78679;BME280;67994;59.334;13.528;2023-05-20T00:44:00;102600.0;;;8.3;71.4
78679;BME280;67994;59.334;13.528;2023-05-20T00:45:00;102600.0;;;8.5;70.9
78679;BME280;67994;59.334;13.528;2023-05-20T00:46:00;102600.0;;;8.5;70.9
78679;BME280;67994;59.334;13.528;2023-05-20T00:47:00;102600.0;;;8.6;71.1
78679;BME280;67994;59.334;13.528;2023-05-20T00:48:01;102600.0;;;8.4;71.9
78679;BME280;67994;59.334;13.528;2023-05-20T00:49:00;102600.0;;;8.3;72.6
78679;BME280;67994;59.334;13.528;2023-05-20T00:50:00;102600.0;;;8.2;72.3
78679;BME280;67994;59.334;13.528;2023-05-20T00:51:00;102600.0;;;8.2;72.3
78679;BME280;67994;59.334;13.528;2023-05-20T00:52:00;102600.0;;;8.1;72.8
78679;BME280;67994;59.334;13.528;2023-05-20T00:53:00;102600.0;;;8.1;72.8
78679;BME280;67994;59.334;13.528;2023-05-20T00:54:00;102600.0;;;8.0;73.0
78679;BME280;67994;59.334;13.528;2023-05-20T00:55:00;102600.0;;;7.9;74.0
78679;BME280;67994;59.334;13.528;2023-05-20T00:56:00;102600.0;;;7.9;73.7
78679;BME280;67994;59.334;13.528;2023-05-20T00:57:01;102600.0;;;7.9;73.8
78679;BME280;67994;59.334;13.528;2023-05-20T00:58:00;102600.0;;;7.9;74.0
78679;BME280;67994;59.334;13.528;2023-05-20T00:59:01;102600.0;;;7.9;74.0
78679;BME280;67994;59.334;13.528;2023-05-20T01:00:02;102600.0;;;8.0;73.7
78679;BME280;67994;59.334;13.528;2023-05-20T01:01:00;102600.0;;;7.8;74.6
78679;BME280;67994;59.334;13.528;2023-05-20T01:02:01;102600.0;;;7.9;74.0
78679;BME280;67994;59.334;13.528;2023-05-20T01:03:00;102600.0;;;7.9;73.7
78679;BME280;67994;59.334;13.528;2023-05-20T01:04:01;102600.0;;;7.9;73.4
78679;BME280;67994;59.334;13.528;2023-05-20T01:05:00;102600.0;;;7.9;72.9
78679;BME280;67994;59.334;13.528;2023-05-20T01:06:01;102600.0;;;8.1;72.4
78679;BME280;67994;59.334;13.528;2023-05-20T01:07:04;102600.0;;;8.2;71.9
78679;BME280;67994;59.334;13.528;2023-05-20T01:08:00;102600.0;;;8.1;72.1
78679;BME280;67994;59.334;13.528;2023-05-20T01:09:00;102600.0;;;8.1;72.1
78679;BME280;67994;59.334;13.528;2023-05-20T01:10:00;102600.0;;;8.0;72.6
78679;BME280;67994;59.334;13.528;2023-05-20T01:11:03;102600.0;;;8.0;72.8
78679;BME280;67994;59.334;13.528;2023-05-20T01:12:04;102600.0;;;7.9;72.9
78679;BME280;67994;59.334;13.528;2023-05-20T01:13:04;102600.0;;;7.8;73.2
78679;BME280;67994;59.334;13.528;2023-05-20T01:14:02;102600.0;;;7.9;72.8
78679;BME280;67994;59.334;13.528;2023-05-20T01:15:04;102600.0;;;7.9;73.0
78679;BME280;67994;59.334;13.528;2023-05-20T01:16:02;102600.0;;;7.9;72.8
78679;BME280;67994;59.334;13.528;2023-05-20T01:17:02;102600.0;;;7.9;73.0
78679;BME280;67994;59.334;13.528;2023-05-20T01:18:02;102600.0;;;7.9;73.3
78679;BME280;67994;59.334;13.528;2023-05-20T01:19:01;102600.0;;;7.9;72.9
78679;BME280;67994;59.334;13.528;2023-05-20T01:20:00;102600.0;;;7.9;72.3
78679;BME280;67994;59.334;13.528;2023-05-20T01:21:01;102600.0;;;8.0;71.7
78679;BME280;67994;59.334;13.528;2023-05-20T01:22:02;102600.0;;;8.2;70.5
78679;BME280;67994;59.334;13.528;2023-05-20T01:23:00;102600.0;;;8.2;70.5
78679;BME280;67994;59.334;13.528;2023-05-20T01:24:00;102600.0;;;8.1;71.6
78679;BME280;67994;59.334;13.528;2023-05-20T01:25:00;102600.0;;;7.9;72.2
78679;BME280;67994;59.334;13.528;2023-05-20T01:26:00;102600.0;;;7.9;72.6
78679;BME280;67994;59.334;13.528;2023-05-20T01:27:00;102600.0;;;7.9;72.4
78679;BME280;67994;59.334;13.528;2023-05-20T01:28:00;102600.0;;;7.8;72.8
78679;BME280;67994;59.334;13.528;2023-05-20T01:29:00;102600.0;;;7.8;72.8
78679;BME280;67994;59.334;13.528;2023-05-20T01:30:00;102600.0;;;7.8;73.2
78679;BME280;67994;59.334;13.528;2023-05-20T01:31:02;102600.0;;;7.8;74.0
78679;BME280;67994;59.334;13.528;2023-05-20T01:32:00;102600.0;;;7.8;73.6
78679;BME280;67994;59.334;13.528;2023-05-20T01:33:04;102600.0;;;7.8;73.8
78679;BME280;67994;59.334;13.528;2023-05-20T01:34:00;102600.0;;;7.7;73.2
78679;BME280;67994;59.334;13.528;2023-05-20T01:35:01;102600.0;;;7.8;73.3
78679;BME280;67994;59.334;13.528;2023-05-20T01:36:00;102600.0;;;7.8;72.8
78679;BME280;67994;59.334;13.528;2023-05-20T01:37:01;102600.0;;;7.7;72.8
78679;BME280;67994;59.334;13.528;2023-05-20T01:38:02;102600.0;;;7.7;73.2
78679;BME280;67994;59.334;13.528;2023-05-20T01:39:01;102600.0;;;7.7;73.0
78679;BME280;67994;59.334;13.528;2023-05-20T01:40:02;102600.0;;;7.8;73.1
78679;BME280;67994;59.334;13.528;2023-05-20T01:41:01;102600.0;;;7.8;72.9
78679;BME280;67994;59.334;13.528;2023-05-20T01:42:01;102600.0;;;8.1;70.8
78679;BME280;67994;59.334;13.528;2023-05-20T01:43:01;102600.0;;;8.2;69.9
78679;BME280;67994;59.334;13.528;2023-05-20T01:44:00;102600.0;;;8.0;72.3
78679;BME280;67994;59.334;13.528;2023-05-20T01:45:00;102600.0;;;7.8;73.3
78679;BME280;67994;59.334;13.528;2023-05-20T01:46:00;102600.0;;;7.8;74.3
78679;BME280;67994;59.334;13.528;2023-05-20T01:47:00;102600.0;;;7.6;74.4
78679;BME280;67994;59.334;13.528;2023-05-20T01:48:01;102600.0;;;7.5;74.8
78679;BME280;67994;59.334;13.528;2023-05-20T01:49:00;102600.0;;;7.4;74.6
78679;BME280;67994;59.334;13.528;2023-05-20T01:50:00;102600.0;;;7.4;74.6
78679;BME280;67994;59.334;13.528;2023-05-20T01:51:00;102600.0;;;7.4;75.1
78679;BME280;67994;59.334;13.528;2023-05-20T01:52:00;102600.0;;;7.5;75.0
78679;BME280;67994;59.334;13.528;2023-05-20T01:53:00;102600.0;;;7.5;75.5
78679;BME280;67994;59.334;13.528;2023-05-20T01:54:00;102600.0;;;7.1;76.6
78679;BME280;67994;59.334;13.528;2023-05-20T01:55:00;102600.0;;;7.1;76.6
78679;BME280;67994;59.334;13.528;2023-05-20T01:56:00;102600.0;;;7.1;76.6
78679;BME280;67994;59.334;13.528;2023-05-20T01:57:00;102600.0;;;7.2;76.5
78679;BME280;67994;59.334;13.528;2023-05-20T01:58:00;102600.0;;;7.1;77.0
78679;BME280;67994;59.334;13.528;2023-05-20T01:59:00;102600.0;;;7.4;75.3
78679;BME280;67994;59.334;13.528;2023-05-20T02:00:00;102600.0;;;7.4;75.3
78679;BME280;67994;59.334;13.528;2023-05-20T02:01:00;102600.0;;;7.4;75.8
78679;BME280;67994;59.334;13.528;2023-05-20T02:02:00;102600.0;;;7.4;75.7
78679;BME280;67994;59.334;13.528;2023-05-20T02:03:00;102600.0;;;7.4;75.3
78679;BME280;67994;59.334;13.528;2023-05-20T02:04:00;102600.0;;;7.5;74.1
78679;BME280;67994;59.334;13.528;2023-05-20T02:05:00;102600.0;;;7.5;74.1
78679;BME280;67994;59.334;13.528;2023-05-20T02:06:00;102600.0;;;7.5;73.8
78679;BME280;67994;59.334;13.528;2023-05-20T02:07:00;102600.0;;;7.4;74.2
78679;BME280;67994;59.334;13.528;2023-05-20T02:08:00;102600.0;;;7.3;74.6
78679;BME280;67994;59.334;13.528;2023-05-20T02:09:00;102600.0;;;7.3;74.6
78679;BME280;67994;59.334;13.528;2023-05-20T02:10:00;102600.0;;;7.3;74.5
78679;BME280;67994;59.334;13.528;2023-05-20T02:11:00;102600.0;;;7.4;74.1
78679;BME280;67994;59.334;13.528;2023-05-20T02:12:00;102600.0;;;7.4;74.3
78679;BME280;67994;59.334;13.528;2023-05-20T02:13:00;102600.0;;;7.4;74.3
78679;BME280;67994;59.334;13.528;2023-05-20T02:14:00;102600.0;;;7.5;74.4
78679;BME280;67994;59.334;13.528;2023-05-20T02:15:00;102600.0;;;7.5;74.5
78679;BME280;67994;59.334;13.528;2023-05-20T02:16:00;102600.0;;;7.5;74.5
78679;BME280;67994;59.334;13.528;2023-05-20T02:17:00;102600.0;;;7.5;74.4
78679;BME280;67994;59.334;13.528;2023-05-20T02:18:00;102600.0;;;7.5;74.6
78679;BME280;67994;59.334;13.528;2023-05-20T02:19:00;102600.0;;;7.5;74.9
78679;BME280;67994;59.334;13.528;2023-05-20T02:20:00;102600.0;;;7.4;75.1
78679;BME280;67994;59.334;13.528;2023-05-20T02:21:01;102600.0;;;7.4;75.2
78679;BME280;67994;59.334;13.528;2023-05-20T02:22:00;102600.0;;;7.4;75.0
78679;BME280;67994;59.334;13.528;2023-05-20T02:23:00;102600.0;;;7.5;74.9
78679;BME280;67994;59.334;13.528;2023-05-20T02:24:00;102600.0;;;7.5;74.8
78679;BME280;67994;59.334;13.528;2023-05-20T02:25:00;102600.0;;;7.4;75.0
78679;BME280;67994;59.334;13.528;2023-05-20T02:26:00;102600.0;;;7.5;72.6
78679;BME280;67994;59.334;13.528;2023-05-20T02:27:00;102600.0;;;7.7;72.6
78679;BME280;67994;59.334;13.528;2023-05-20T02:28:00;102600.0;;;7.7;72.9
78679;BME280;67994;59.334;13.528;2023-05-20T02:29:00;102600.0;;;7.7;73.2
78679;BME280;67994;59.334;13.528;2023-05-20T02:30:00;102600.0;;;7.5;73.5
78679;BME280;67994;59.334;13.528;2023-05-20T02:31:00;102600.0;;;7.4;73.7
78679;BME280;67994;59.334;13.528;2023-05-20T02:32:01;102600.0;;;7.5;73.8
78679;BME280;67994;59.334;13.528;2023-05-20T02:33:00;102600.0;;;7.4;75.2
78679;BME280;67994;59.334;13.528;2023-05-20T02:34:00;102600.0;;;7.4;75.3
78679;BME280;67994;59.334;13.528;2023-05-20T02:35:00;102600.0;;;7.4;75.3
78679;BME280;67994;59.334;13.528;2023-05-20T02:36:00;102600.0;;;7.5;75.0
78679;BME280;67994;59.334;13.528;2023-05-20T02:37:00;102600.0;;;7.5;74.2
78679;BME280;67994;59.334;13.528;2023-05-20T02:38:00;102600.0;;;7.5;74.2
78679;BME280;67994;59.334;13.528;2023-05-20T02:39:00;102600.0;;;7.4;74.7
78679;BME280;67994;59.334;13.528;2023-05-20T02:40:00;102700.0;;;7.5;74.0
78679;BME280;67994;59.334;13.528;2023-05-20T02:41:00;102700.0;;;7.5;75.6
78679;BME280;67994;59.334;13.528;2023-05-20T02:42:00;102700.0;;;7.4;75.8
78679;BME280;67994;59.334;13.528;2023-05-20T02:43:00;102700.0;;;7.4;76.1
78679;BME280;67994;59.334;13.528;2023-05-20T02:44:01;102700.0;;;7.5;76.0
78679;BME280;67994;59.334;13.528;2023-05-20T02:45:00;102700.0;;;7.4;76.0
78679;BME280;67994;59.334;13.528;2023-05-20T02:46:00;102700.0;;;7.5;75.9
78679;BME280;67994;59.334;13.528;2023-05-20T02:47:00;102700.0;;;7.5;76.3
78679;BME280;67994;59.334;13.528;2023-05-20T02:48:00;102700.0;;;7.4;77.2
78679;BME280;67994;59.334;13.528;2023-05-20T02:49:00;102700.0;;;7.4;76.4
78679;BME280;67994;59.334;13.528;2023-05-20T02:50:00;102700.0;;;7.5;76.4
78679;BME280;67994;59.334;13.528;2023-05-20T02:51:00;102700.0;;;7.4;76.4
78679;BME280;67994;59.334;13.528;2023-05-20T02:52:00;102700.0;;;7.5;76.3
78679;BME280;67994;59.334;13.528;2023-05-20T02:53:00;102700.0;;;7.5;76.3
78679;BME280;67994;59.334;13.528;2023-05-20T02:54:00;102700.0;;;7.7;76.1
78679;BME280;67994;59.334;13.528;2023-05-20T02:55:00;102700.0;;;7.8;76.1
78679;BME280;67994;59.334;13.528;2023-05-20T02:56:00;102700.0;;;8.0;76.5
78679;BME280;67994;59.334;13.528;2023-05-20T02:57:00;102700.0;;;8.1;75.9
78679;BME280;67994;59.334;13.528;2023-05-20T02:58:00;102700.0;;;8.4;74.0
78679;BME280;67994;59.334;13.528;2023-05-20T02:59:00;102700.0;;;8.4;74.2
78679;BME280;67994;59.334;13.528;2023-05-20T03:00:00;102600.0;;;8.8;72.2
78679;BME280;67994;59.334;13.528;2023-05-20T03:01:00;102600.0;;;8.8;72.1
78679;BME280;67994;59.334;13.528;2023-05-20T03:02:00;102600.0;;;8.9;71.2
78679;BME280;67994;59.334;13.528;2023-05-20T03:03:00;102600.0;;;9.1;70.4
78679;BME280;67994;59.334;13.528;2023-05-20T03:04:01;102600.0;;;9.1;70.4
78679;BME280;67994;59.334;13.528;2023-05-20T03:05:00;102600.0;;;8.9;71.9
78679;BME280;67994;59.334;13.528;2023-05-20T03:06:00;102600.0;;;8.7;72.1
78679;BME280;67994;59.334;13.528;2023-05-20T03:07:01;102600.0;;;8.7;72.2
78679;BME280;67994;59.334;13.528;2023-05-20T03:08:00;102600.0;;;9.0;72.1
78679;BME280;67994;59.334;13.528;2023-05-20T03:09:00;102600.0;;;9.0;73.2
78679;BME280;67994;59.334;13.528;2023-05-20T03:10:00;102600.0;;;9.2;72.4
78679;BME280;67994;59.334;13.528;2023-05-20T03:11:00;102600.0;;;9.2;72.1
78679;BME280;67994;59.334;13.528;2023-05-20T03:12:00;102600.0;;;9.3;71.8
78679;BME280;67994;59.334;13.528;2023-05-20T03:13:00;102600.0;;;9.7;70.9
78679;BME280;67994;59.334;13.528;2023-05-20T03:14:00;102600.0;;;9.7;70.7
78679;BME280;67994;59.334;13.528;2023-05-20T03:15:00;102600.0;;;9.6;70.3
78679;BME280;67994;59.334;13.528;2023-05-20T03:16:00;102600.0;;;9.8;69.9
78679;BME280;67994;59.334;13.528;2023-05-20T03:17:00;102600.0;;;9.8;69.9
78679;BME280;67994;59.334;13.528;2023-05-20T03:18:00;102600.0;;;9.9;69.5
78679;BME280;67994;59.334;13.528;2023-05-20T03:19:00;102600.0;;;10.0;68.9
78679;BME280;67994;59.334;13.528;2023-05-20T03:20:00;102600.0;;;10.1;68.9
78679;BME280;67994;59.334;13.528;2023-05-20T03:21:00;102600.0;;;10.3;68.0
78679;BME280;67994;59.334;13.528;2023-05-20T03:22:00;102600.0;;;10.7;66.7
78679;BME280;67994;59.334;13.528;2023-05-20T03:23:00;102600.0;;;11.1;66.3
78679;BME280;67994;59.334;13.528;2023-05-20T03:24:00;102600.0;;;11.1;66.2
78679;BME280;67994;59.334;13.528;2023-05-20T03:25:00;102600.0;;;11.0;67.3
78679;BME280;67994;59.334;13.528;2023-05-20T03:26:00;102700.0;;;11.0;66.9
78679;BME280;67994;59.334;13.528;2023-05-20T03:27:00;102700.0;;;10.9;67.5
78679;BME280;67994;59.334;13.528;2023-05-20T03:28:00;102700.0;;;10.9;67.8
78679;BME280;67994;59.334;13.528;2023-05-20T03:29:00;102700.0;;;10.9;68.1
78679;BME280;67994;59.334;13.528;2023-05-20T03:30:00;102700.0;;;11.0;67.5
78679;BME280;67994;59.334;13.528;2023-05-20T03:31:00;102600.0;;;11.1;68.0
78679;BME280;67994;59.334;13.528;2023-05-20T03:32:00;102600.0;;;11.3;67.3
78679;BME280;67994;59.334;13.528;2023-05-20T03:33:00;102600.0;;;11.5;66.9
78679;BME280;67994;59.334;13.528;2023-05-20T03:34:00;102600.0;;;11.5;66.3
78679;BME280;67994;59.334;13.528;2023-05-20T03:35:00;102600.0;;;11.8;65.9
78679;BME280;67994;59.334;13.528;2023-05-20T03:36:00;102600.0;;;11.7;67.3
78679;BME280;67994;59.334;13.528;2023-05-20T03:37:00;102600.0;;;11.8;66.8
78679;BME280;67994;59.334;13.528;2023-05-20T03:38:00;102600.0;;;11.8;66.9
78679;BME280;67994;59.334;13.528;2023-05-20T03:39:00;102600.0;;;12.0;67.0
78679;BME280;67994;59.334;13.528;2023-05-20T03:40:00;102600.0;;;12.1;66.5
78679;BME280;67994;59.334;13.528;2023-05-20T03:41:00;102600.0;;;12.1;66.3
78679;BME280;67994;59.334;13.528;2023-05-20T03:42:00;102700.0;;;12.2;65.5
78679;BME280;67994;59.334;13.528;2023-05-20T03:43:00;102600.0;;;12.1;66.2
78679;BME280;67994;59.334;13.528;2023-05-20T03:44:00;102700.0;;;12.1;66.1
78679;BME280;67994;59.334;13.528;2023-05-20T03:45:00;102700.0;;;12.3;65.7
78679;BME280;67994;59.334;13.528;2023-05-20T03:46:00;102700.0;;;12.6;65.0
78679;BME280;67994;59.334;13.528;2023-05-20T03:47:00;102700.0;;;13.1;63.7
78679;BME280;67994;59.334;13.528;2023-05-20T03:48:00;102700.0;;;13.0;64.1
78679;BME280;67994;59.334;13.528;2023-05-20T03:49:00;102700.0;;;12.8;64.4
78679;BME280;67994;59.334;13.528;2023-05-20T03:50:00;102700.0;;;12.8;64.4
78679;BME280;67994;59.334;13.528;2023-05-20T03:51:00;102700.0;;;12.9;64.4
78679;BME280;67994;59.334;13.528;2023-05-20T03:52:00;102700.0;;;13.0;64.5
78679;BME280;67994;59.334;13.528;2023-05-20T03:53:00;102700.0;;;13.5;63.4
78679;BME280;67994;59.334;13.528;2023-05-20T03:54:00;102700.0;;;13.8;62.9
78679;BME280;67994;59.334;13.528;2023-05-20T03:55:00;102700.0;;;13.8;62.9
78679;BME280;67994;59.334;13.528;2023-05-20T03:56:00;102700.0;;;14.0;62.4
78679;BME280;67994;59.334;13.528;2023-05-20T03:57:00;102700.0;;;14.3;62.1
78679;BME280;67994;59.334;13.528;2023-05-20T03:58:00;102700.0;;;14.4;61.4
78679;BME280;67994;59.334;13.528;2023-05-20T03:59:00;102600.0;;;14.6;61.2
78679;BME280;67994;59.334;13.528;2023-05-20T04:00:00;102600.0;;;14.8;61.2
78679;BME280;67994;59.334;13.528;2023-05-20T04:01:00;102600.0;;;15.0;60.1
78679;BME280;67994;59.334;13.528;2023-05-20T04:02:00;102600.0;;;15.1;60.0
78679;BME280;67994;59.334;13.528;2023-05-20T04:03:00;102600.0;;;15.3;59.6
78679;BME280;67994;59.334;13.528;2023-05-20T04:04:00;102600.0;;;15.2;59.6
78679;BME280;67994;59.334;13.528;2023-05-20T04:05:00;102600.0;;;15.6;58.4
78679;BME280;67994;59.334;13.528;2023-05-20T04:06:00;102600.0;;;15.4;59.8
78679;BME280;67994;59.334;13.528;2023-05-20T04:07:00;102700.0;;;15.4;60.0
78679;BME280;67994;59.334;13.528;2023-05-20T04:08:00;102600.0;;;15.2;60.2
78679;BME280;67994;59.334;13.528;2023-05-20T04:09:00;102700.0;;;15.5;59.4
78679;BME280;67994;59.334;13.528;2023-05-20T04:10:01;102700.0;;;15.1;60.3
78679;BME280;67994;59.334;13.528;2023-05-20T04:11:01;102700.0;;;14.7;61.0
78679;BME280;67994;59.334;13.528;2023-05-20T04:12:00;102700.0;;;14.5;61.5
78679;BME280;67994;59.334;13.528;2023-05-20T04:13:00;102700.0;;;14.3;62.0
78679;BME280;67994;59.334;13.528;2023-05-20T04:14:00;102700.0;;;14.3;62.0
78679;BME280;67994;59.334;13.528;2023-05-20T04:15:01;102700.0;;;14.6;61.4
78679;BME280;67994;59.334;13.528;2023-05-20T04:16:00;102700.0;;;14.9;60.8
78679;BME280;67994;59.334;13.528;2023-05-20T04:17:01;102700.0;;;14.8;61.0
78679;BME280;67994;59.334;13.528;2023-05-20T04:18:00;102700.0;;;14.9;61.4
78679;BME280;67994;59.334;13.528;2023-05-20T04:19:00;102700.0;;;14.8;61.8
78679;BME280;67994;59.334;13.528;2023-05-20T04:20:00;102700.0;;;14.9;61.6
78679;BME280;67994;59.334;13.528;2023-05-20T04:21:00;102700.0;;;14.9;61.6
78679;BME280;67994;59.334;13.528;2023-05-20T04:22:00;102700.0;;;14.6;62.2
78679;BME280;67994;59.334;13.528;2023-05-20T04:23:00;102700.0;;;14.7;62.8
78679;BME280;67994;59.334;13.528;2023-05-20T04:24:00;102700.0;;;14.7;62.7
78679;BME280;67994;59.334;13.528;2023-05-20T04:25:00;102700.0;;;14.6;63.0
78679;BME280;67994;59.334;13.528;2023-05-20T04:26:00;102700.0;;;14.6;63.0
78679;BME280;67994;59.334;13.528;2023-05-20T04:27:00;102700.0;;;14.6;63.2
78679;BME280;67994;59.334;13.528;2023-05-20T04:28:00;102700.0;;;14.9;62.8
78679;BME280;67994;59.334;13.528;2023-05-20T04:29:00;102700.0;;;14.7;63.3
78679;BME280;67994;59.334;13.528;2023-05-20T04:30:00;102700.0;;;14.8;63.4
78679;BME280;67994;59.334;13.528;2023-05-20T04:31:00;102700.0;;;14.9;63.2
78679;BME280;67994;59.334;13.528;2023-05-20T04:32:00;102700.0;;;15.0;63.0
78679;BME280;67994;59.334;13.528;2023-05-20T04:33:00;102700.0;;;14.8;63.6
78679;BME280;67994;59.334;13.528;2023-05-20T04:34:00;102700.0;;;14.8;64.3
78679;BME280;67994;59.334;13.528;2023-05-20T04:35:00;102700.0;;;14.5;64.6
78679;BME280;67994;59.334;13.528;2023-05-20T04:36:00;102700.0;;;14.5;65.7
78679;BME280;67994;59.334;13.528;2023-05-20T04:37:00;102700.0;;;14.3;65.5
78679;BME280;67994;59.334;13.528;2023-05-20T04:38:00;102700.0;;;14.1;66.0
78679;BME280;67994;59.334;13.528;2023-05-20T04:39:00;102700.0;;;13.8;67.0
78679;BME280;67994;59.334;13.528;2023-05-20T04:40:00;102700.0;;;13.7;67.3
78679;BME280;67994;59.334;13.528;2023-05-20T04:41:00;102700.0;;;14.5;65.9
78679;BME280;67994;59.334;13.528;2023-05-20T04:42:00;102700.0;;;14.5;65.6
78679;BME280;67994;59.334;13.528;2023-05-20T04:43:00;102700.0;;;14.2;66.5
78679;BME280;67994;59.334;13.528;2023-05-20T04:44:00;102700.0;;;13.9;67.3
78679;BME280;67994;59.334;13.528;2023-05-20T04:45:00;102700.0;;;14.1;67.7
78679;BME280;67994;59.334;13.528;2023-05-20T04:46:00;102700.0;;;13.9;67.7
78679;BME280;67994;59.334;13.528;2023-05-20T04:47:00;102700.0;;;14.0;67.3
78679;BME280;67994;59.334;13.528;2023-05-20T04:48:00;102700.0;;;13.8;67.2
78679;BME280;67994;59.334;13.528;2023-05-20T04:49:00;102700.0;;;14.3;66.8
78679;BME280;67994;59.334;13.528;2023-05-20T04:50:00;102700.0;;;14.1;66.9
78679;BME280;67994;59.334;13.528;2023-05-20T04:51:00;102700.0;;;13.5;69.2
78679;BME280;67994;59.334;13.528;2023-05-20T04:52:00;102700.0;;;13.3;69.2
78679;BME280;67994;59.334;13.528;2023-05-20T04:53:00;102700.0;;;13.6;69.0
78679;BME280;67994;59.334;13.528;2023-05-20T04:54:00;102700.0;;;13.6;69.0
78679;BME280;67994;59.334;13.528;2023-05-20T04:55:00;102700.0;;;13.6;69.0
78679;BME280;67994;59.334;13.528;2023-05-20T04:56:00;102700.0;;;13.8;67.9
78679;BME280;67994;59.334;13.528;2023-05-20T04:57:00;102700.0;;;13.5;69.1
78679;BME280;67994;59.334;13.528;2023-05-20T04:58:00;102700.0;;;13.2;69.1
78679;BME280;67994;59.334;13.528;2023-05-20T04:59:00;102700.0;;;13.5;69.5
78679;BME280;67994;59.334;13.528;2023-05-20T05:00:00;102700.0;;;13.9;68.4
78679;BME280;67994;59.334;13.528;2023-05-20T05:01:00;102700.0;;;13.7;69.7
78679;BME280;67994;59.334;13.528;2023-05-20T05:02:00;102700.0;;;13.9;69.3
78679;BME280;67994;59.334;13.528;2023-05-20T05:03:00;102700.0;;;13.3;70.3
78679;BME280;67994;59.334;13.528;2023-05-20T05:04:00;102700.0;;;13.6;70.3
78679;BME280;67994;59.334;13.528;2023-05-20T05:05:00;102700.0;;;13.2;70.3
78679;BME280;67994;59.334;13.528;2023-05-20T05:06:00;102700.0;;;13.6;70.5
78679;BME280;67994;59.334;13.528;2023-05-20T05:07:00;102700.0;;;13.1;70.6
78679;BME280;67994;59.334;13.528;2023-05-20T05:08:00;102700.0;;;13.6;71.0
78679;BME280;67994;59.334;13.528;2023-05-20T05:09:00;102700.0;;;13.9;68.8
78679;BME280;67994;59.334;13.528;2023-05-20T05:10:00;102700.0;;;14.1;68.0
78679;BME280;67994;59.334;13.528;2023-05-20T05:11:00;102700.0;;;14.6;66.8
78679;BME280;67994;59.334;13.528;2023-05-20T05:12:00;102700.0;;;14.7;66.8
78679;BME280;67994;59.334;13.528;2023-05-20T05:13:01;102700.0;;;14.1;68.5
78679;BME280;67994;59.334;13.528;2023-05-20T05:14:00;102700.0;;;14.0;68.7
78679;BME280;67994;59.334;13.528;2023-05-20T05:15:00;102700.0;;;14.0;68.6
78679;BME280;67994;59.334;13.528;2023-05-20T05:16:01;102700.0;;;13.8;69.0
78679;BME280;67994;59.334;13.528;2023-05-20T05:17:00;102700.0;;;13.8;69.1
78679;BME280;67994;59.334;13.528;2023-05-20T05:18:00;102700.0;;;13.9;69.0
78679;BME280;67994;59.334;13.528;2023-05-20T05:19:00;102700.0;;;13.8;69.4
78679;BME280;67994;59.334;13.528;2023-05-20T05:20:00;102700.0;;;14.3;68.2
78679;BME280;67994;59.334;13.528;2023-05-20T05:21:01;102700.0;;;14.5;67.6
78679;BME280;67994;59.334;13.528;2023-05-20T05:22:00;102700.0;;;13.7;69.4
78679;BME280;67994;59.334;13.528;2023-05-20T05:23:00;102700.0;;;13.7;69.4
78679;BME280;67994;59.334;13.528;2023-05-20T05:24:00;102700.0;;;14.1;68.8